Estación Meteorológica Peña el Pijo (Robertgarden) [ 09/24/17 17:45:32 CEST ]

Fecha Hora Presion(HPa) Temp (°C) Humedad % Rocio (°C) Viento ( m/s) Direccion Lluvia 1Hora(mm) Lluvia 24H(mm) LLuvia Total(mm)
2017-Aug-19 01:01:41 1012.800 19.3 55 10.0         1439.00
2017-Aug-19 02:01:35 1012.500 17.9 57 9.2         1439.00
2017-Aug-19 03:01:12 1012.300 17.1 57 8.5         1439.00
2017-Aug-19 04:01:06 1011.900 17.2 56 8.3         1439.00
2017-Aug-19 05:01:07 1011.800 16.9 57 8.3         1439.00
2017-Aug-19 06:01:05 1011.900 16.4 60 8.7         1439.00
2017-Aug-19 07:01:51 1012.000 16.5 60 8.8         1439.00
2017-Aug-19 08:01:39 1012.500 15.3 65 8.8         1439.00
2017-Aug-19 09:01:57 1012.600 21.0 59 12.7         1439.00
2017-Aug-19 10:02:02 1012.800 24.2 47 12.2         1439.00
2017-Aug-19 11:01:43 1013.100 28.8 42 14.6         1439.00
2017-Aug-19 12:01:35 1013.000 32.6 34 14.6         1439.00
2017-Aug-19 13:01:41 1013.000 34.5 32 15.3         1439.00
2017-Aug-19 14:01:50 1012.900 35.3 34 16.9         1439.00
2017-Aug-19 15:01:44 1012.800 36.2 32 16.8         1439.00
2017-Aug-19 16:01:56 1012.300 34.8 33 16.1         1439.00
2017-Aug-19 17:01:39 1012.100 33.4 36 16.2 3.3 S     1439.00
2017-Aug-19 18:01:48 1012.100 32.8 38 16.5         1439.00
2017-Aug-19 19:01:42 1012.200 31.5 40 16.2         1439.00
2017-Aug-19 20:01:35 1012.500 28.6 44 15.1         1439.00
2017-Aug-19 21:01:39 1013.100 26.4 47 14.1         1439.00
2017-Aug-19 22:01:38 1013.800 24.6 50 13.5         1439.00
2017-Aug-19 23:01:31 1015.000 22.6 54 12.8         1439.00

Temperatura Máxima:36°    Temperatura Mínima:15°
Presión Máxima:1015.000 Hpa    Presión Mínima:1011.800 Hpa


Volver